sensor_id;sensor_type;location;lat;lon;timestamp;P1;durP1;ratioP1;P2;durP2;ratioP2
18142;SDS011;9197;50.930;3.140;2023-04-25T00:01:56;10.80;;;7.33;;
18142;SDS011;9197;50.930;3.140;2023-04-25T00:04:24;12.97;;;8.20;;
18142;SDS011;9197;50.930;3.140;2023-04-25T00:06:52;14.30;;;8.63;;
18142;SDS011;9197;50.930;3.140;2023-04-25T00:09:19;22.97;;;7.80;;
18142;SDS011;9197;50.930;3.140;2023-04-25T00:11:48;15.77;;;8.00;;
18142;SDS011;9197;50.930;3.140;2023-04-25T00:14:15;13.67;;;7.63;;
18142;SDS011;9197;50.930;3.140;2023-04-25T00:16:42;13.33;;;6.83;;
18142;SDS011;9197;50.930;3.140;2023-04-25T00:19:10;13.87;;;7.30;;
18142;SDS011;9197;50.930;3.140;2023-04-25T00:21:38;13.83;;;5.90;;
18142;SDS011;9197;50.930;3.140;2023-04-25T00:24:06;17.77;;;7.10;;
18142;SDS011;9197;50.930;3.140;2023-04-25T00:26:33;15.30;;;5.67;;
18142;SDS011;9197;50.930;3.140;2023-04-25T00:29:02;12.70;;;6.37;;
18142;SDS011;9197;50.930;3.140;2023-04-25T00:31:29;15.80;;;5.60;;
18142;SDS011;9197;50.930;3.140;2023-04-25T00:33:57;17.13;;;6.83;;
18142;SDS011;9197;50.930;3.140;2023-04-25T00:36:24;16.37;;;6.60;;
18142;SDS011;9197;50.930;3.140;2023-04-25T00:38:52;13.63;;;5.10;;
18142;SDS011;9197;50.930;3.140;2023-04-25T00:41:20;13.77;;;5.63;;
18142;SDS011;9197;50.930;3.140;2023-04-25T00:43:47;13.97;;;5.33;;
18142;SDS011;9197;50.930;3.140;2023-04-25T00:46:16;14.73;;;5.93;;
18142;SDS011;9197;50.930;3.140;2023-04-25T00:48:43;14.70;;;6.30;;
18142;SDS011;9197;50.930;3.140;2023-04-25T00:51:11;13.67;;;5.87;;
18142;SDS011;9197;50.930;3.140;2023-04-25T00:53:40;16.23;;;5.67;;
18142;SDS011;9197;50.930;3.140;2023-04-25T00:56:07;13.90;;;5.90;;
18142;SDS011;9197;50.930;3.140;2023-04-25T00:58:35;16.33;;;5.63;;
18142;SDS011;9197;50.930;3.140;2023-04-25T01:01:03;11.90;;;5.63;;
18142;SDS011;9197;50.930;3.140;2023-04-25T01:03:33;11.83;;;4.70;;
18142;SDS011;9197;50.930;3.140;2023-04-25T01:06:01;12.03;;;5.43;;
18142;SDS011;9197;50.930;3.140;2023-04-25T01:08:28;15.63;;;5.50;;
18142;SDS011;9197;50.930;3.140;2023-04-25T01:10:56;11.23;;;5.33;;
18142;SDS011;9197;50.930;3.140;2023-04-25T01:13:23;13.67;;;4.67;;
18142;SDS011;9197;50.930;3.140;2023-04-25T01:15:50;8.17;;;4.37;;
18142;SDS011;9197;50.930;3.140;2023-04-25T01:18:17;6.03;;;4.40;;
18142;SDS011;9197;50.930;3.140;2023-04-25T01:20:47;10.83;;;4.87;;
18142;SDS011;9197;50.930;3.140;2023-04-25T01:23:17;16.53;;;4.60;;
18142;SDS011;9197;50.930;3.140;2023-04-25T01:25:45;15.30;;;5.00;;
18142;SDS011;9197;50.930;3.140;2023-04-25T01:28:12;14.33;;;4.93;;
18142;SDS011;9197;50.930;3.140;2023-04-25T01:30:39;10.57;;;5.07;;
18142;SDS011;9197;50.930;3.140;2023-04-25T01:33:07;13.10;;;4.47;;
18142;SDS011;9197;50.930;3.140;2023-04-25T01:35:35;7.50;;;4.10;;
18142;SDS011;9197;50.930;3.140;2023-04-25T01:38:02;15.90;;;5.23;;
18142;SDS011;9197;50.930;3.140;2023-04-25T01:40:30;13.87;;;5.73;;
18142;SDS011;9197;50.930;3.140;2023-04-25T01:42:58;15.20;;;6.30;;
18142;SDS011;9197;50.930;3.140;2023-04-25T01:45:25;15.43;;;6.00;;
18142;SDS011;9197;50.930;3.140;2023-04-25T01:47:52;14.80;;;6.10;;
18142;SDS011;9197;50.930;3.140;2023-04-25T01:50:20;12.60;;;5.10;;
18142;SDS011;9197;50.930;3.140;2023-04-25T01:52:47;12.47;;;5.40;;
18142;SDS011;9197;50.930;3.140;2023-04-25T01:55:14;17.80;;;5.50;;
18142;SDS011;9197;50.930;3.140;2023-04-25T01:57:43;15.47;;;5.23;;
18142;SDS011;9197;50.930;3.140;2023-04-25T02:00:11;15.43;;;5.83;;
18142;SDS011;9197;50.930;3.140;2023-04-25T02:02:38;14.53;;;5.77;;
18142;SDS011;9197;50.930;3.140;2023-04-25T02:05:06;15.50;;;5.53;;
18142;SDS011;9197;50.930;3.140;2023-04-25T02:07:33;15.67;;;5.07;;
18142;SDS011;9197;50.930;3.140;2023-04-25T02:10:00;15.60;;;5.50;;
18142;SDS011;9197;50.930;3.140;2023-04-25T02:12:28;12.07;;;4.23;;
18142;SDS011;9197;50.930;3.140;2023-04-25T02:14:57;8.90;;;4.30;;
18142;SDS011;9197;50.930;3.140;2023-04-25T02:17:24;7.80;;;4.30;;
18142;SDS011;9197;50.930;3.140;2023-04-25T02:19:52;12.50;;;5.17;;
18142;SDS011;9197;50.930;3.140;2023-04-25T02:22:19;16.10;;;4.50;;
18142;SDS011;9197;50.930;3.140;2023-04-25T02:24:46;13.13;;;4.33;;
18142;SDS011;9197;50.930;3.140;2023-04-25T02:27:14;11.80;;;4.40;;
18142;SDS011;9197;50.930;3.140;2023-04-25T02:29:41;14.83;;;4.97;;
18142;SDS011;9197;50.930;3.140;2023-04-25T02:32:09;10.53;;;3.63;;
18142;SDS011;9197;50.930;3.140;2023-04-25T02:34:37;15.23;;;4.87;;
18142;SDS011;9197;50.930;3.140;2023-04-25T02:37:04;12.37;;;4.70;;
18142;SDS011;9197;50.930;3.140;2023-04-25T02:39:31;13.03;;;4.50;;
18142;SDS011;9197;50.930;3.140;2023-04-25T02:41:58;14.00;;;4.83;;
18142;SDS011;9197;50.930;3.140;2023-04-25T02:44:26;8.40;;;3.90;;
18142;SDS011;9197;50.930;3.140;2023-04-25T02:46:53;10.83;;;5.60;;
18142;SDS011;9197;50.930;3.140;2023-04-25T02:49:21;12.50;;;5.70;;
18142;SDS011;9197;50.930;3.140;2023-04-25T02:51:49;16.07;;;5.07;;
18142;SDS011;9197;50.930;3.140;2023-04-25T02:54:16;10.67;;;4.93;;
18142;SDS011;9197;50.930;3.140;2023-04-25T02:56:43;11.40;;;4.80;;
18142;SDS011;9197;50.930;3.140;2023-04-25T02:59:10;11.47;;;4.53;;
18142;SDS011;9197;50.930;3.140;2023-04-25T03:01:37;10.33;;;4.87;;
18142;SDS011;9197;50.930;3.140;2023-04-25T03:04:05;12.33;;;4.60;;
18142;SDS011;9197;50.930;3.140;2023-04-25T03:06:33;14.10;;;4.13;;
18142;SDS011;9197;50.930;3.140;2023-04-25T03:09:00;10.97;;;4.87;;
18142;SDS011;9197;50.930;3.140;2023-04-25T03:11:28;12.50;;;4.80;;
18142;SDS011;9197;50.930;3.140;2023-04-25T03:13:56;9.33;;;4.60;;
18142;SDS011;9197;50.930;3.140;2023-04-25T03:16:23;7.70;;;3.97;;
18142;SDS011;9197;50.930;3.140;2023-04-25T03:18:50;15.30;;;5.00;;
18142;SDS011;9197;50.930;3.140;2023-04-25T03:21:18;8.80;;;4.03;;
18142;SDS011;9197;50.930;3.140;2023-04-25T03:23:46;10.37;;;4.33;;
18142;SDS011;9197;50.930;3.140;2023-04-25T03:26:13;8.83;;;3.87;;
18142;SDS011;9197;50.930;3.140;2023-04-25T03:28:41;10.63;;;3.93;;
18142;SDS011;9197;50.930;3.140;2023-04-25T03:31:08;8.73;;;4.07;;
18142;SDS011;9197;50.930;3.140;2023-04-25T03:33:35;10.10;;;4.40;;
18142;SDS011;9197;50.930;3.140;2023-04-25T03:36:03;11.70;;;3.77;;
18142;SDS011;9197;50.930;3.140;2023-04-25T03:38:30;11.70;;;4.53;;
18142;SDS011;9197;50.930;3.140;2023-04-25T03:40:58;14.77;;;5.97;;
18142;SDS011;9197;50.930;3.140;2023-04-25T03:43:26;12.63;;;4.83;;
18142;SDS011;9197;50.930;3.140;2023-04-25T03:45:53;13.33;;;4.30;;
18142;SDS011;9197;50.930;3.140;2023-04-25T03:48:20;9.90;;;3.90;;
18142;SDS011;9197;50.930;3.140;2023-04-25T03:50:49;10.43;;;4.70;;
18142;SDS011;9197;50.930;3.140;2023-04-25T03:53:17;12.70;;;3.97;;
18142;SDS011;9197;50.930;3.140;2023-04-25T03:55:44;18.40;;;4.70;;
18142;SDS011;9197;50.930;3.140;2023-04-25T03:58:12;10.93;;;4.23;;
18142;SDS011;9197;50.930;3.140;2023-04-25T04:00:39;8.33;;;4.20;;
18142;SDS011;9197;50.930;3.140;2023-04-25T04:03:07;12.67;;;4.47;;
18142;SDS011;9197;50.930;3.140;2023-04-25T04:05:34;10.50;;;4.57;;
18142;SDS011;9197;50.930;3.140;2023-04-25T04:08:02;8.47;;;4.20;;
18142;SDS011;9197;50.930;3.140;2023-04-25T04:10:29;9.30;;;3.57;;
18142;SDS011;9197;50.930;3.140;2023-04-25T04:12:56;10.87;;;3.70;;
18142;SDS011;9197;50.930;3.140;2023-04-25T04:15:25;10.10;;;4.40;;
18142;SDS011;9197;50.930;3.140;2023-04-25T04:17:52;7.60;;;2.83;;
18142;SDS011;9197;50.930;3.140;2023-04-25T04:20:20;11.37;;;3.60;;
18142;SDS011;9197;50.930;3.140;2023-04-25T04:22:47;9.80;;;3.87;;
18142;SDS011;9197;50.930;3.140;2023-04-25T04:25:14;11.77;;;4.90;;
18142;SDS011;9197;50.930;3.140;2023-04-25T04:27:41;6.23;;;2.70;;
18142;SDS011;9197;50.930;3.140;2023-04-25T04:30:10;8.40;;;3.57;;
18142;SDS011;9197;50.930;3.140;2023-04-25T04:32:38;8.40;;;3.27;;
18142;SDS011;9197;50.930;3.140;2023-04-25T04:35:06;14.53;;;3.90;;
18142;SDS011;9197;50.930;3.140;2023-04-25T04:37:34;15.63;;;3.27;;
18142;SDS011;9197;50.930;3.140;2023-04-25T04:40:01;5.67;;;2.70;;
18142;SDS011;9197;50.930;3.140;2023-04-25T04:42:31;8.87;;;2.93;;
18142;SDS011;9197;50.930;3.140;2023-04-25T04:44:58;8.93;;;4.07;;
18142;SDS011;9197;50.930;3.140;2023-04-25T04:47:26;5.37;;;2.57;;
18142;SDS011;9197;50.930;3.140;2023-04-25T04:49:57;13.23;;;3.53;;
18142;SDS011;9197;50.930;3.140;2023-04-25T04:52:24;11.13;;;3.20;;
18142;SDS011;9197;50.930;3.140;2023-04-25T04:54:51;7.10;;;2.87;;
18142;SDS011;9197;50.930;3.140;2023-04-25T04:57:18;12.77;;;6.33;;
18142;SDS011;9197;50.930;3.140;2023-04-25T04:59:45;8.80;;;3.40;;
18142;SDS011;9197;50.930;3.140;2023-04-25T05:02:13;12.60;;;3.50;;
18142;SDS011;9197;50.930;3.140;2023-04-25T05:04:40;8.47;;;2.87;;
18142;SDS011;9197;50.930;3.140;2023-04-25T05:07:08;8.57;;;2.80;;
18142;SDS011;9197;50.930;3.140;2023-04-25T05:09:36;3.93;;;2.60;;
18142;SDS011;9197;50.930;3.140;2023-04-25T05:12:03;6.30;;;2.80;;
18142;SDS011;9197;50.930;3.140;2023-04-25T05:14:30;5.53;;;3.10;;
18142;SDS011;9197;50.930;3.140;2023-04-25T05:16:58;7.43;;;3.60;;
18142;SDS011;9197;50.930;3.140;2023-04-25T05:19:25;6.47;;;2.80;;
18142;SDS011;9197;50.930;3.140;2023-04-25T05:21:52;11.07;;;2.93;;
18142;SDS011;9197;50.930;3.140;2023-04-25T05:24:21;9.73;;;3.73;;
18142;SDS011;9197;50.930;3.140;2023-04-25T05:26:48;10.10;;;4.30;;
18142;SDS011;9197;50.930;3.140;2023-04-25T05:29:15;13.43;;;3.57;;
18142;SDS011;9197;50.930;3.140;2023-04-25T05:31:42;13.07;;;3.97;;
18142;SDS011;9197;50.930;3.140;2023-04-25T05:34:10;8.00;;;3.60;;
18142;SDS011;9197;50.930;3.140;2023-04-25T05:36:37;4.97;;;3.00;;
18142;SDS011;9197;50.930;3.140;2023-04-25T05:39:05;7.27;;;3.43;;
18142;SDS011;9197;50.930;3.140;2023-04-25T05:41:34;6.70;;;2.90;;
18142;SDS011;9197;50.930;3.140;2023-04-25T05:44:01;8.93;;;3.00;;
18142;SDS011;9197;50.930;3.140;2023-04-25T05:46:28;7.23;;;3.20;;
18142;SDS011;9197;50.930;3.140;2023-04-25T05:48:56;9.83;;;3.83;;
18142;SDS011;9197;50.930;3.140;2023-04-25T05:51:23;9.13;;;3.10;;
18142;SDS011;9197;50.930;3.140;2023-04-25T05:53:51;7.17;;;3.37;;
18142;SDS011;9197;50.930;3.140;2023-04-25T05:56:18;8.60;;;3.50;;
18142;SDS011;9197;50.930;3.140;2023-04-25T05:58:46;8.90;;;3.53;;
18142;SDS011;9197;50.930;3.140;2023-04-25T06:01:13;5.43;;;3.30;;
18142;SDS011;9197;50.930;3.140;2023-04-25T06:03:41;11.70;;;3.00;;
18142;SDS011;9197;50.930;3.140;2023-04-25T06:06:09;8.47;;;2.90;;
18142;SDS011;9197;50.930;3.140;2023-04-25T06:08:36;14.30;;;4.07;;
18142;SDS011;9197;50.930;3.140;2023-04-25T06:11:03;6.40;;;3.27;;
18142;SDS011;9197;50.930;3.140;2023-04-25T06:13:31;12.33;;;3.27;;
18142;SDS011;9197;50.930;3.140;2023-04-25T06:15:59;6.40;;;3.03;;
18142;SDS011;9197;50.930;3.140;2023-04-25T06:18:26;10.27;;;2.87;;
18142;SDS011;9197;50.930;3.140;2023-04-25T06:20:54;9.57;;;2.37;;
18142;SDS011;9197;50.930;3.140;2023-04-25T06:23:21;7.40;;;3.17;;
18142;SDS011;9197;50.930;3.140;2023-04-25T06:25:48;9.47;;;3.60;;
18142;SDS011;9197;50.930;3.140;2023-04-25T06:28:15;6.50;;;2.27;;
18142;SDS011;9197;50.930;3.140;2023-04-25T06:30:42;5.87;;;2.13;;
18142;SDS011;9197;50.930;3.140;2023-04-25T06:33:11;8.10;;;3.13;;
18142;SDS011;9197;50.930;3.140;2023-04-25T06:35:38;5.20;;;2.83;;
18142;SDS011;9197;50.930;3.140;2023-04-25T06:38:05;12.07;;;2.77;;
18142;SDS011;9197;50.930;3.140;2023-04-25T06:40:34;8.87;;;2.30;;
18142;SDS011;9197;50.930;3.140;2023-04-25T06:43:01;6.10;;;2.83;;
18142;SDS011;9197;50.930;3.140;2023-04-25T06:45:28;8.20;;;2.37;;
18142;SDS011;9197;50.930;3.140;2023-04-25T06:47:55;6.03;;;2.63;;
18142;SDS011;9197;50.930;3.140;2023-04-25T06:50:24;6.90;;;2.60;;
18142;SDS011;9197;50.930;3.140;2023-04-25T06:52:51;6.73;;;2.67;;
18142;SDS011;9197;50.930;3.140;2023-04-25T06:55:19;10.53;;;2.73;;
18142;SDS011;9197;50.930;3.140;2023-04-25T06:57:46;8.83;;;2.30;;
18142;SDS011;9197;50.930;3.140;2023-04-25T07:00:14;6.43;;;2.13;;
18142;SDS011;9197;50.930;3.140;2023-04-25T07:02:41;8.47;;;2.20;;
18142;SDS011;9197;50.930;3.140;2023-04-25T07:05:08;9.10;;;3.20;;
18142;SDS011;9197;50.930;3.140;2023-04-25T07:07:37;11.07;;;2.73;;
18142;SDS011;9197;50.930;3.140;2023-04-25T07:10:05;5.67;;;2.53;;
18142;SDS011;9197;50.930;3.140;2023-04-25T07:12:32;6.40;;;2.20;;
18142;SDS011;9197;50.930;3.140;2023-04-25T07:14:59;4.63;;;2.27;;
18142;SDS011;9197;50.930;3.140;2023-04-25T07:17:31;6.53;;;2.07;;
18142;SDS011;9197;50.930;3.140;2023-04-25T07:19:58;8.73;;;2.20;;
18142;SDS011;9197;50.930;3.140;2023-04-25T07:22:25;6.60;;;1.87;;
18142;SDS011;9197;50.930;3.140;2023-04-25T07:24:54;6.27;;;2.00;;
18142;SDS011;9197;50.930;3.140;2023-04-25T07:27:21;7.07;;;2.13;;
18142;SDS011;9197;50.930;3.140;2023-04-25T07:29:49;5.67;;;2.00;;
18142;SDS011;9197;50.930;3.140;2023-04-25T07:32:16;3.77;;;1.90;;
18142;SDS011;9197;50.930;3.140;2023-04-25T07:34:43;5.30;;;2.33;;
18142;SDS011;9197;50.930;3.140;2023-04-25T07:37:10;7.60;;;3.07;;
18142;SDS011;9197;50.930;3.140;2023-04-25T07:39:39;5.37;;;1.70;;
18142;SDS011;9197;50.930;3.140;2023-04-25T07:42:08;4.23;;;1.67;;
18142;SDS011;9197;50.930;3.140;2023-04-25T07:44:35;7.03;;;1.92;;
18142;SDS011;9197;50.930;3.140;2023-04-25T07:47:04;7.57;;;2.00;;
18142;SDS011;9197;50.930;3.140;2023-04-25T07:49:32;5.35;;;1.95;;
18142;SDS011;9197;50.930;3.140;2023-04-25T07:51:59;6.50;;;2.20;;
18142;SDS011;9197;50.930;3.140;2023-04-25T07:54:27;3.65;;;1.83;;
18142;SDS011;9197;50.930;3.140;2023-04-25T07:56:54;5.88;;;2.00;;
18142;SDS011;9197;50.930;3.140;2023-04-25T07:59:23;11.20;;;2.13;;
18142;SDS011;9197;50.930;3.140;2023-04-25T08:01:51;11.53;;;2.73;;
18142;SDS011;9197;50.930;3.140;2023-04-25T08:04:18;6.13;;;2.73;;
18142;SDS011;9197;50.930;3.140;2023-04-25T08:06:45;9.47;;;4.43;;
18142;SDS011;9197;50.930;3.140;2023-04-25T08:09:13;8.47;;;3.80;;
18142;SDS011;9197;50.930;3.140;2023-04-25T08:11:41;9.33;;;7.10;;
18142;SDS011;9197;50.930;3.140;2023-04-25T08:14:09;10.80;;;3.93;;
18142;SDS011;9197;50.930;3.140;2023-04-25T08:16:37;11.30;;;2.63;;
18142;SDS011;9197;50.930;3.140;2023-04-25T08:19:05;6.87;;;1.93;;
18142;SDS011;9197;50.930;3.140;2023-04-25T08:21:32;6.77;;;2.27;;
18142;SDS011;9197;50.930;3.140;2023-04-25T08:23:59;6.57;;;2.13;;
18142;SDS011;9197;50.930;3.140;2023-04-25T08:26:26;9.95;;;2.15;;
18142;SDS011;9197;50.930;3.140;2023-04-25T08:28:53;6.18;;;2.47;;
18142;SDS011;9197;50.930;3.140;2023-04-25T08:31:21;7.50;;;2.35;;
18142;SDS011;9197;50.930;3.140;2023-04-25T08:33:49;4.18;;;1.55;;
18142;SDS011;9197;50.930;3.140;2023-04-25T08:36:17;7.53;;;1.97;;
18142;SDS011;9197;50.930;3.140;2023-04-25T08:38:45;4.03;;;1.83;;
18142;SDS011;9197;50.930;3.140;2023-04-25T08:41:12;6.40;;;1.60;;
18142;SDS011;9197;50.930;3.140;2023-04-25T08:43:41;6.70;;;2.00;;
18142;SDS011;9197;50.930;3.140;2023-04-25T08:46:09;4.73;;;1.50;;
18142;SDS011;9197;50.930;3.140;2023-04-25T08:48:38;7.67;;;1.97;;
18142;SDS011;9197;50.930;3.140;2023-04-25T08:51:08;4.93;;;1.93;;
18142;SDS011;9197;50.930;3.140;2023-04-25T08:53:37;6.93;;;1.60;;
18142;SDS011;9197;50.930;3.140;2023-04-25T08:56:07;8.13;;;1.70;;
18142;SDS011;9197;50.930;3.140;2023-04-25T08:58:35;7.13;;;2.00;;
18142;SDS011;9197;50.930;3.140;2023-04-25T09:01:03;9.17;;;1.70;;
18142;SDS011;9197;50.930;3.140;2023-04-25T09:03:30;3.50;;;1.23;;
18142;SDS011;9197;50.930;3.140;2023-04-25T09:05:58;7.67;;;1.50;;
18142;SDS011;9197;50.930;3.140;2023-04-25T09:08:26;7.03;;;1.30;;
18142;SDS011;9197;50.930;3.140;2023-04-25T09:10:54;5.37;;;1.73;;
18142;SDS011;9197;50.930;3.140;2023-04-25T09:13:24;5.60;;;1.73;;
18142;SDS011;9197;50.930;3.140;2023-04-25T09:15:52;3.47;;;1.30;;
18142;SDS011;9197;50.930;3.140;2023-04-25T09:18:23;3.13;;;1.17;;
18142;SDS011;9197;50.930;3.140;2023-04-25T09:20:51;4.05;;;1.65;;
18142;SDS011;9197;50.930;3.140;2023-04-25T09:23:19;3.35;;;1.35;;
18142;SDS011;9197;50.930;3.140;2023-04-25T09:25:48;3.97;;;1.27;;
18142;SDS011;9197;50.930;3.140;2023-04-25T09:28:16;5.95;;;1.45;;
18142;SDS011;9197;50.930;3.140;2023-04-25T09:30:43;4.35;;;1.35;;
18142;SDS011;9197;50.930;3.140;2023-04-25T09:33:12;4.47;;;1.52;;
18142;SDS011;9197;50.930;3.140;2023-04-25T09:35:40;5.03;;;1.52;;
18142;SDS011;9197;50.930;3.140;2023-04-25T09:38:08;5.05;;;1.52;;
18142;SDS011;9197;50.930;3.140;2023-04-25T09:40:38;3.83;;;1.40;;
18142;SDS011;9197;50.930;3.140;2023-04-25T09:43:10;4.93;;;1.38;;
18142;SDS011;9197;50.930;3.140;2023-04-25T09:45:41;3.72;;;1.23;;
18142;SDS011;9197;50.930;3.140;2023-04-25T09:48:11;6.90;;;1.58;;
18142;SDS011;9197;50.930;3.140;2023-04-25T09:50:38;5.25;;;1.58;;
18142;SDS011;9197;50.930;3.140;2023-04-25T09:53:06;4.85;;;1.05;;
18142;SDS011;9197;50.930;3.140;2023-04-25T09:55:33;5.97;;;2.17;;
18142;SDS011;9197;50.930;3.140;2023-04-25T09:58:05;5.70;;;1.23;;
18142;SDS011;9197;50.930;3.140;2023-04-25T10:00:34;4.70;;;1.48;;
18142;SDS011;9197;50.930;3.140;2023-04-25T10:03:01;3.72;;;1.60;;
18142;SDS011;9197;50.930;3.140;2023-04-25T10:05:30;3.70;;;1.30;;
18142;SDS011;9197;50.930;3.140;2023-04-25T10:07:59;4.95;;;1.30;;
18142;SDS011;9197;50.930;3.140;2023-04-25T10:10:28;4.70;;;1.15;;
18142;SDS011;9197;50.930;3.140;2023-04-25T10:13:01;5.13;;;1.20;;
18142;SDS011;9197;50.930;3.140;2023-04-25T10:15:28;3.08;;;1.10;;
18142;SDS011;9197;50.930;3.140;2023-04-25T10:17:57;4.70;;;1.52;;
18142;SDS011;9197;50.930;3.140;2023-04-25T10:20:25;3.08;;;1.00;;
18142;SDS011;9197;50.930;3.140;2023-04-25T10:22:53;6.00;;;1.65;;
18142;SDS011;9197;50.930;3.140;2023-04-25T10:25:21;2.72;;;1.30;;
18142;SDS011;9197;50.930;3.140;2023-04-25T10:27:49;6.03;;;1.95;;
18142;SDS011;9197;50.930;3.140;2023-04-25T10:30:17;6.53;;;1.85;;
18142;SDS011;9197;50.930;3.140;2023-04-25T10:32:45;5.55;;;1.10;;
18142;SDS011;9197;50.930;3.140;2023-04-25T10:35:14;3.42;;;1.50;;
18142;SDS011;9197;50.930;3.140;2023-04-25T10:38:02;2.38;;;1.27;;
18142;SDS011;9197;50.930;3.140;2023-04-25T10:40:30;5.57;;;1.42;;
18142;SDS011;9197;50.930;3.140;2023-04-25T10:45:58;6.53;;;1.40;;
18142;SDS011;9197;50.930;3.140;2023-04-25T10:48:26;1.98;;;1.45;;
18142;SDS011;9197;50.930;3.140;2023-04-25T10:51:07;4.03;;;1.50;;
18142;SDS011;9197;50.930;3.140;2023-04-25T10:53:35;3.55;;;1.13;;
18142;SDS011;9197;50.930;3.140;2023-04-25T10:56:09;4.60;;;1.15;;
18142;SDS011;9197;50.930;3.140;2023-04-25T10:58:36;3.33;;;1.27;;
18142;SDS011;9197;50.930;3.140;2023-04-25T11:01:08;1.80;;;1.10;;
18142;SDS011;9197;50.930;3.140;2023-04-25T11:03:38;3.20;;;1.73;;
18142;SDS011;9197;50.930;3.140;2023-04-25T11:06:05;5.82;;;1.15;;
18142;SDS011;9197;50.930;3.140;2023-04-25T11:08:37;1.93;;;1.03;;
18142;SDS011;9197;50.930;3.140;2023-04-25T11:11:10;3.03;;;1.00;;
18142;SDS011;9197;50.930;3.140;2023-04-25T11:13:38;2.17;;;0.83;;
18142;SDS011;9197;50.930;3.140;2023-04-25T11:16:06;3.40;;;1.07;;
18142;SDS011;9197;50.930;3.140;2023-04-25T11:18:34;4.57;;;0.90;;
18142;SDS011;9197;50.930;3.140;2023-04-25T11:21:02;2.50;;;0.90;;
18142;SDS011;9197;50.930;3.140;2023-04-25T11:23:29;2.63;;;1.07;;
18142;SDS011;9197;50.930;3.140;2023-04-25T11:25:58;1.63;;;0.93;;
18142;SDS011;9197;50.930;3.140;2023-04-25T11:28:26;2.53;;;1.20;;
18142;SDS011;9197;50.930;3.140;2023-04-25T11:30:54;3.30;;;0.93;;
18142;SDS011;9197;50.930;3.140;2023-04-25T11:33:22;1.90;;;1.20;;
18142;SDS011;9197;50.930;3.140;2023-04-25T11:35:50;5.37;;;1.60;;
18142;SDS011;9197;50.930;3.140;2023-04-25T11:38:17;3.80;;;1.10;;
18142;SDS011;9197;50.930;3.140;2023-04-25T11:40:48;3.43;;;1.00;;
18142;SDS011;9197;50.930;3.140;2023-04-25T11:43:17;3.33;;;1.00;;
18142;SDS011;9197;50.930;3.140;2023-04-25T11:45:46;3.23;;;1.37;;
18142;SDS011;9197;50.930;3.140;2023-04-25T11:48:13;3.00;;;1.10;;
18142;SDS011;9197;50.930;3.140;2023-04-25T11:50:40;3.60;;;1.20;;
18142;SDS011;9197;50.930;3.140;2023-04-25T11:53:08;4.33;;;1.30;;
18142;SDS011;9197;50.930;3.140;2023-04-25T11:55:35;5.17;;;1.40;;
18142;SDS011;9197;50.930;3.140;2023-04-25T11:58:03;2.03;;;0.90;;
18142;SDS011;9197;50.930;3.140;2023-04-25T12:00:32;3.57;;;1.13;;
18142;SDS011;9197;50.930;3.140;2023-04-25T12:02:59;4.17;;;1.37;;
18142;SDS011;9197;50.930;3.140;2023-04-25T12:05:28;7.70;;;1.50;;
18142;SDS011;9197;50.930;3.140;2023-04-25T12:07:58;5.43;;;1.80;;
18142;SDS011;9197;50.930;3.140;2023-04-25T12:10:25;7.20;;;2.00;;
18142;SDS011;9197;50.930;3.140;2023-04-25T12:12:52;6.73;;;1.97;;
18142;SDS011;9197;50.930;3.140;2023-04-25T12:15:23;5.33;;;2.17;;
18142;SDS011;9197;50.930;3.140;2023-04-25T12:17:52;3.93;;;1.37;;
18142;SDS011;9197;50.930;3.140;2023-04-25T12:20:20;2.97;;;1.50;;
18142;SDS011;9197;50.930;3.140;2023-04-25T12:22:48;4.97;;;2.30;;
18142;SDS011;9197;50.930;3.140;2023-04-25T12:28:08;5.40;;;1.40;;
18142;SDS011;9197;50.930;3.140;2023-04-25T12:33:19;10.70;;;5.47;;
18142;SDS011;9197;50.930;3.140;2023-04-25T12:35:46;3.77;;;2.63;;
18142;SDS011;9197;50.930;3.140;2023-04-25T12:38:20;10.10;;;3.87;;
18142;SDS011;9197;50.930;3.140;2023-04-25T12:40:47;6.03;;;2.03;;
18142;SDS011;9197;50.930;3.140;2023-04-25T12:43:14;3.57;;;2.10;;
18142;SDS011;9197;50.930;3.140;2023-04-25T12:45:41;7.07;;;2.80;;
18142;SDS011;9197;50.930;3.140;2023-04-25T12:48:09;4.50;;;1.50;;
18142;SDS011;9197;50.930;3.140;2023-04-25T12:50:37;3.67;;;2.47;;
18142;SDS011;9197;50.930;3.140;2023-04-25T12:53:04;3.83;;;1.90;;
18142;SDS011;9197;50.930;3.140;2023-04-25T12:55:32;8.60;;;2.23;;
18142;SDS011;9197;50.930;3.140;2023-04-25T12:57:59;5.07;;;1.20;;
18142;SDS011;9197;50.930;3.140;2023-04-25T13:00:27;4.37;;;2.00;;
18142;SDS011;9197;50.930;3.140;2023-04-25T13:02:54;5.70;;;1.83;;
18142;SDS011;9197;50.930;3.140;2023-04-25T13:05:21;4.83;;;2.60;;
18142;SDS011;9197;50.930;3.140;2023-04-25T13:07:50;4.50;;;2.90;;
18142;SDS011;9197;50.930;3.140;2023-04-25T13:10:17;2.40;;;1.13;;
18142;SDS011;9197;50.930;3.140;2023-04-25T13:12:44;7.43;;;2.80;;
18142;SDS011;9197;50.930;3.140;2023-04-25T13:15:11;4.60;;;3.20;;
18142;SDS011;9197;50.930;3.140;2023-04-25T13:17:40;5.17;;;3.07;;
18142;SDS011;9197;50.930;3.140;2023-04-25T13:20:08;3.43;;;1.00;;
18142;SDS011;9197;50.930;3.140;2023-04-25T13:22:37;3.70;;;1.10;;
18142;SDS011;9197;50.930;3.140;2023-04-25T13:25:06;6.83;;;2.50;;
18142;SDS011;9197;50.930;3.140;2023-04-25T13:27:34;3.03;;;1.70;;
18142;SDS011;9197;50.930;3.140;2023-04-25T13:30:03;3.73;;;1.20;;
18142;SDS011;9197;50.930;3.140;2023-04-25T13:32:32;3.17;;;1.40;;
18142;SDS011;9197;50.930;3.140;2023-04-25T13:35:01;4.20;;;1.80;;
18142;SDS011;9197;50.930;3.140;2023-04-25T13:37:28;3.77;;;1.40;;
18142;SDS011;9197;50.930;3.140;2023-04-25T13:39:58;4.47;;;3.47;;
18142;SDS011;9197;50.930;3.140;2023-04-25T13:42:27;2.00;;;1.37;;
18142;SDS011;9197;50.930;3.140;2023-04-25T13:44:54;2.10;;;1.10;;
18142;SDS011;9197;50.930;3.140;2023-04-25T13:47:22;4.67;;;2.10;;
18142;SDS011;9197;50.930;3.140;2023-04-25T13:49:49;3.57;;;1.87;;
18142;SDS011;9197;50.930;3.140;2023-04-25T13:52:16;4.53;;;1.60;;
18142;SDS011;9197;50.930;3.140;2023-04-25T13:54:43;9.63;;;4.23;;
18142;SDS011;9197;50.930;3.140;2023-04-25T13:57:11;5.50;;;2.07;;
18142;SDS011;9197;50.930;3.140;2023-04-25T13:59:39;6.40;;;3.80;;
18142;SDS011;9197;50.930;3.140;2023-04-25T14:02:07;13.83;;;7.17;;
18142;SDS011;9197;50.930;3.140;2023-04-25T14:04:34;4.57;;;1.87;;
18142;SDS011;9197;50.930;3.140;2023-04-25T14:07:02;5.40;;;2.93;;
18142;SDS011;9197;50.930;3.140;2023-04-25T14:09:29;10.07;;;5.33;;
18142;SDS011;9197;50.930;3.140;2023-04-25T14:11:57;7.10;;;2.73;;
18142;SDS011;9197;50.930;3.140;2023-04-25T14:14:25;7.03;;;2.90;;
18142;SDS011;9197;50.930;3.140;2023-04-25T14:16:54;5.27;;;2.30;;
18142;SDS011;9197;50.930;3.140;2023-04-25T14:19:32;1.93;;;1.23;;
18142;SDS011;9197;50.930;3.140;2023-04-25T14:22:08;3.13;;;1.43;;
18142;SDS011;9197;50.930;3.140;2023-04-25T14:24:35;3.77;;;1.67;;
18142;SDS011;9197;50.930;3.140;2023-04-25T14:27:03;7.93;;;2.10;;
18142;SDS011;9197;50.930;3.140;2023-04-25T14:29:30;5.33;;;1.20;;
18142;SDS011;9197;50.930;3.140;2023-04-25T14:31:59;5.83;;;1.60;;
18142;SDS011;9197;50.930;3.140;2023-04-25T14:34:27;5.83;;;1.50;;
18142;SDS011;9197;50.930;3.140;2023-04-25T14:36:55;5.47;;;1.87;;
18142;SDS011;9197;50.930;3.140;2023-04-25T14:39:23;4.03;;;1.53;;
18142;SDS011;9197;50.930;3.140;2023-04-25T14:41:50;9.13;;;1.47;;
18142;SDS011;9197;50.930;3.140;2023-04-25T14:44:17;5.43;;;1.53;;
18142;SDS011;9197;50.930;3.140;2023-04-25T14:46:45;7.13;;;1.93;;
18142;SDS011;9197;50.930;3.140;2023-04-25T14:49:13;2.43;;;1.17;;
18142;SDS011;9197;50.930;3.140;2023-04-25T14:51:41;2.67;;;0.90;;
18142;SDS011;9197;50.930;3.140;2023-04-25T14:54:08;6.63;;;1.43;;
18142;SDS011;9197;50.930;3.140;2023-04-25T14:56:36;6.20;;;1.63;;
18142;SDS011;9197;50.930;3.140;2023-04-25T14:59:03;5.03;;;1.63;;
18142;SDS011;9197;50.930;3.140;2023-04-25T15:01:30;2.97;;;1.20;;
18142;SDS011;9197;50.930;3.140;2023-04-25T15:03:58;4.67;;;1.33;;
18142;SDS011;9197;50.930;3.140;2023-04-25T15:06:26;6.93;;;2.30;;
18142;SDS011;9197;50.930;3.140;2023-04-25T15:08:55;5.43;;;1.57;;
18142;SDS011;9197;50.930;3.140;2023-04-25T15:11:23;3.83;;;1.33;;